Aviation Digital Data Service (ADDS)

Output produced by METARs form (1753 UTC 29 July 2015)
found at http://aviationweather.gov/adds/metars/
 
KGSO 291720Z 2918/3018 00000KT P6SM VCSH SCT025 BKN035 
     TEMPO 2918/2922 3SM SHRA BKN015 
     FM300000 VRB03KT P6SM SCT070 BKN250